Airfield :
LOGIN :

Register | Disclaimer

   EN    FR    IT 

 










Legend :    VFR   Marginal VFR   IFR   Intensive IFR   Very Intensive IFR
Visi :
Ceiling :
>= 8 km
>= 3000ft
5 to 8 km
1000 to 3000 ft
1500m to 5 km
500 to 1000 ft
800 to 1500m
200 to 500 ft
< 800m
< 200 ft
Symbols :   Thunderstorms  Fog  Heavy snow  Heavy precipitations  Wind > 20 kt
SIGMETs :     Misc.  Thunderstorms  Icing  Turbulence  Mountain Waves  Volcanic Ashes






- Airport Elevation : -11 ft
- IATA code : AMS


EHAM - Amsterdam Schiphol

CURRENT METAR :
  • 220925Z 35010KT 320V040 9999 SCT035 08/00 Q1027 NOSIG

EXPIRED METARs :
  • 220855Z 35010KT 310V040 9999 SCT034 09/01 Q1027 NOSIG
  • 220825Z 34011KT 300V050 9999 BKN034 08/00 Q1027 NOSIG
  • 220755Z 34012KT 300V020 9999 SCT034 08/M00 Q1026 NOSIG
  • 220725Z 36010KT 9999 SCT034 07/M00 Q1026 NOSIG
  • 220655Z 01009KT 330V040 9999 SCT034 07/M00 Q1026 NOSIG

TAF TAF EHAM
Valid from the 22 at 06:00 until the 23 at 12:00 UTC


220428Z 2206/2312 34004KT 9999 SCT030
BECMG 2206/2209 35012KT
BECMG 2218/2221 33003KT
BECMG 2308/2311 34010KT



MET'MAP, your aeronautical weather chart ! - Copyright ORBIFLY December 2007 - Disclaimer

ORBIFLY MET'MAP TEAM :

Programming & Development : Alexandra Zaïnal
Concept & original design : Baudouin d'Aumeries
Assistance for programming : Marc-Olivier Méhu
Technical & hardware support : Manuel Goepfert

Contact : metmap@orbifly.com




SOURCES & CREDITS :

   NOAA